sensor_id;sensor_type;location;lat;lon;timestamp;P1;durP1;ratioP1;P2;durP2;ratioP2
67185;SDS011;54116;53.518;49.398;2023-05-10T00:02:08;5.93;;;1.10;;
67185;SDS011;54116;53.518;49.398;2023-05-10T00:04:34;7.72;;;1.13;;
67185;SDS011;54116;53.518;49.398;2023-05-10T00:07:02;5.20;;;1.17;;
67185;SDS011;54116;53.518;49.398;2023-05-10T00:09:29;5.32;;;1.42;;
67185;SDS011;54116;53.518;49.398;2023-05-10T00:11:55;6.30;;;1.02;;
67185;SDS011;54116;53.518;49.398;2023-05-10T00:14:24;12.90;;;1.58;;
67185;SDS011;54116;53.518;49.398;2023-05-10T00:16:50;5.07;;;0.93;;
67185;SDS011;54116;53.518;49.398;2023-05-10T00:22:33;6.80;;;1.13;;
67185;SDS011;54116;53.518;49.398;2023-05-10T00:25:00;5.30;;;1.02;;
67185;SDS011;54116;53.518;49.398;2023-05-10T00:32:17;7.30;;;1.17;;
67185;SDS011;54116;53.518;49.398;2023-05-10T00:39:35;3.85;;;0.63;;
67185;SDS011;54116;53.518;49.398;2023-05-10T00:46:53;8.50;;;1.88;;
67185;SDS011;54116;53.518;49.398;2023-05-10T00:49:19;4.97;;;1.00;;
67185;SDS011;54116;53.518;49.398;2023-05-10T00:51:46;6.93;;;0.93;;
67185;SDS011;54116;53.518;49.398;2023-05-10T00:54:14;4.28;;;0.77;;
67185;SDS011;54116;53.518;49.398;2023-05-10T00:56:40;3.60;;;1.08;;
67185;SDS011;54116;53.518;49.398;2023-05-10T00:59:08;3.45;;;0.70;;
67185;SDS011;54116;53.518;49.398;2023-05-10T01:01:35;4.57;;;0.80;;
67185;SDS011;54116;53.518;49.398;2023-05-10T01:04:01;6.25;;;0.90;;
67185;SDS011;54116;53.518;49.398;2023-05-10T01:06:28;4.72;;;0.95;;
67185;SDS011;54116;53.518;49.398;2023-05-10T01:08:54;2.95;;;0.80;;
67185;SDS011;54116;53.518;49.398;2023-05-10T01:11:21;4.97;;;0.75;;
67185;SDS011;54116;53.518;49.398;2023-05-10T01:13:50;3.63;;;1.40;;
67185;SDS011;54116;53.518;49.398;2023-05-10T01:16:21;4.95;;;1.65;;
67185;SDS011;54116;53.518;49.398;2023-05-10T01:18:48;3.33;;;0.73;;
67185;SDS011;54116;53.518;49.398;2023-05-10T01:21:17;5.78;;;1.00;;
67185;SDS011;54116;53.518;49.398;2023-05-10T01:26:37;5.88;;;0.90;;
67185;SDS011;54116;53.518;49.398;2023-05-10T01:32:03;5.30;;;1.00;;
67185;SDS011;54116;53.518;49.398;2023-05-10T01:34:56;5.68;;;1.00;;
67185;SDS011;54116;53.518;49.398;2023-05-10T01:37:33;6.28;;;1.25;;
67185;SDS011;54116;53.518;49.398;2023-05-10T01:40:26;9.57;;;1.08;;
67185;SDS011;54116;53.518;49.398;2023-05-10T01:43:01;8.50;;;1.40;;
67185;SDS011;54116;53.518;49.398;2023-05-10T01:45:31;5.43;;;1.05;;
67185;SDS011;54116;53.518;49.398;2023-05-10T01:48:11;9.70;;;1.20;;
67185;SDS011;54116;53.518;49.398;2023-05-10T01:50:39;7.32;;;1.38;;
67185;SDS011;54116;53.518;49.398;2023-05-10T01:53:08;4.35;;;1.30;;
67185;SDS011;54116;53.518;49.398;2023-05-10T01:55:43;9.88;;;1.75;;
67185;SDS011;54116;53.518;49.398;2023-05-10T01:58:13;7.78;;;1.25;;
67185;SDS011;54116;53.518;49.398;2023-05-10T02:00:43;7.10;;;1.50;;
67185;SDS011;54116;53.518;49.398;2023-05-10T02:03:11;8.52;;;2.05;;
67185;SDS011;54116;53.518;49.398;2023-05-10T02:05:39;3.67;;;1.10;;
67185;SDS011;54116;53.518;49.398;2023-05-10T02:08:06;8.18;;;2.50;;
67185;SDS011;54116;53.518;49.398;2023-05-10T02:10:34;7.60;;;2.40;;
67185;SDS011;54116;53.518;49.398;2023-05-10T02:13:02;7.95;;;2.40;;
67185;SDS011;54116;53.518;49.398;2023-05-10T02:15:28;6.25;;;2.00;;
67185;SDS011;54116;53.518;49.398;2023-05-10T02:17:56;6.03;;;1.83;;
67185;SDS011;54116;53.518;49.398;2023-05-10T02:20:24;6.00;;;1.95;;
67185;SDS011;54116;53.518;49.398;2023-05-10T02:22:52;5.57;;;1.70;;
67185;SDS011;54116;53.518;49.398;2023-05-10T02:25:20;3.90;;;1.23;;
67185;SDS011;54116;53.518;49.398;2023-05-10T02:27:48;4.60;;;1.10;;
67185;SDS011;54116;53.518;49.398;2023-05-10T02:30:15;6.70;;;1.23;;
67185;SDS011;54116;53.518;49.398;2023-05-10T02:32:43;4.85;;;1.50;;
67185;SDS011;54116;53.518;49.398;2023-05-10T02:35:10;7.78;;;1.30;;
67185;SDS011;54116;53.518;49.398;2023-05-10T02:37:37;4.82;;;1.55;;
67185;SDS011;54116;53.518;49.398;2023-05-10T02:40:04;4.20;;;1.40;;
67185;SDS011;54116;53.518;49.398;2023-05-10T02:42:32;6.55;;;2.20;;
67185;SDS011;54116;53.518;49.398;2023-05-10T02:45:02;15.32;;;2.08;;
67185;SDS011;54116;53.518;49.398;2023-05-10T02:47:32;7.57;;;1.55;;
67185;SDS011;54116;53.518;49.398;2023-05-10T02:49:59;5.60;;;1.35;;
67185;SDS011;54116;53.518;49.398;2023-05-10T02:52:26;5.45;;;0.90;;
67185;SDS011;54116;53.518;49.398;2023-05-10T02:54:55;3.42;;;0.93;;
67185;SDS011;54116;53.518;49.398;2023-05-10T02:57:33;3.72;;;0.77;;
67185;SDS011;54116;53.518;49.398;2023-05-10T03:00:00;4.57;;;0.82;;
67185;SDS011;54116;53.518;49.398;2023-05-10T03:02:28;5.38;;;0.80;;
67185;SDS011;54116;53.518;49.398;2023-05-10T03:04:56;5.63;;;0.60;;
67185;SDS011;54116;53.518;49.398;2023-05-10T03:07:22;2.53;;;0.80;;
67185;SDS011;54116;53.518;49.398;2023-05-10T03:09:48;2.30;;;0.70;;
67185;SDS011;54116;53.518;49.398;2023-05-10T03:12:17;3.60;;;1.05;;
67185;SDS011;54116;53.518;49.398;2023-05-10T03:15:05;2.25;;;0.60;;
67185;SDS011;54116;53.518;49.398;2023-05-10T03:20:25;4.80;;;1.00;;
67185;SDS011;54116;53.518;49.398;2023-05-10T03:22:55;5.53;;;0.68;;
67185;SDS011;54116;53.518;49.398;2023-05-10T03:25:31;2.88;;;0.93;;
67185;SDS011;54116;53.518;49.398;2023-05-10T03:27:58;4.68;;;0.73;;
67185;SDS011;54116;53.518;49.398;2023-05-10T03:30:27;2.40;;;1.25;;
67185;SDS011;54116;53.518;49.398;2023-05-10T03:32:54;6.65;;;1.02;;
67185;SDS011;54116;53.518;49.398;2023-05-10T03:35:21;7.50;;;1.10;;
67185;SDS011;54116;53.518;49.398;2023-05-10T03:37:48;5.55;;;0.95;;
67185;SDS011;54116;53.518;49.398;2023-05-10T03:40:14;4.50;;;0.90;;
67185;SDS011;54116;53.518;49.398;2023-05-10T03:42:41;7.55;;;1.33;;
67185;SDS011;54116;53.518;49.398;2023-05-10T03:45:08;8.88;;;1.70;;
67185;SDS011;54116;53.518;49.398;2023-05-10T03:47:35;13.50;;;4.13;;
67185;SDS011;54116;53.518;49.398;2023-05-10T03:50:01;11.32;;;3.03;;
67185;SDS011;54116;53.518;49.398;2023-05-10T03:52:28;11.38;;;2.95;;
67185;SDS011;54116;53.518;49.398;2023-05-10T03:54:54;7.68;;;2.63;;
67185;SDS011;54116;53.518;49.398;2023-05-10T03:57:20;8.90;;;2.85;;
67185;SDS011;54116;53.518;49.398;2023-05-10T03:59:46;9.65;;;2.67;;
67185;SDS011;54116;53.518;49.398;2023-05-10T04:02:13;11.60;;;2.75;;
67185;SDS011;54116;53.518;49.398;2023-05-10T04:04:39;8.48;;;2.60;;
67185;SDS011;54116;53.518;49.398;2023-05-10T04:07:05;10.98;;;2.08;;
67185;SDS011;54116;53.518;49.398;2023-05-10T04:09:31;10.65;;;2.75;;
67185;SDS011;54116;53.518;49.398;2023-05-10T04:11:58;6.75;;;2.15;;
67185;SDS011;54116;53.518;49.398;2023-05-10T04:14:28;11.65;;;2.67;;
67185;SDS011;54116;53.518;49.398;2023-05-10T04:16:54;8.25;;;2.00;;
67185;SDS011;54116;53.518;49.398;2023-05-10T04:19:21;6.70;;;1.67;;
67185;SDS011;54116;53.518;49.398;2023-05-10T04:21:47;7.53;;;2.40;;
67185;SDS011;54116;53.518;49.398;2023-05-10T04:24:13;8.95;;;2.63;;
67185;SDS011;54116;53.518;49.398;2023-05-10T04:26:39;6.63;;;1.75;;
67185;SDS011;54116;53.518;49.398;2023-05-10T04:29:05;4.50;;;1.13;;
67185;SDS011;54116;53.518;49.398;2023-05-10T04:31:32;5.18;;;1.45;;
67185;SDS011;54116;53.518;49.398;2023-05-10T04:33:58;6.00;;;1.38;;
67185;SDS011;54116;53.518;49.398;2023-05-10T04:36:24;11.05;;;2.58;;
67185;SDS011;54116;53.518;49.398;2023-05-10T04:38:50;8.73;;;2.10;;
67185;SDS011;54116;53.518;49.398;2023-05-10T04:41:16;5.43;;;1.63;;
67185;SDS011;54116;53.518;49.398;2023-05-10T04:43:42;9.65;;;2.00;;
67185;SDS011;54116;53.518;49.398;2023-05-10T04:46:08;7.68;;;1.65;;
67185;SDS011;54116;53.518;49.398;2023-05-10T04:48:34;4.57;;;1.65;;
67185;SDS011;54116;53.518;49.398;2023-05-10T04:51:00;5.57;;;1.50;;
67185;SDS011;54116;53.518;49.398;2023-05-10T04:53:26;7.80;;;2.42;;
67185;SDS011;54116;53.518;49.398;2023-05-10T04:55:52;8.50;;;2.10;;
67185;SDS011;54116;53.518;49.398;2023-05-10T04:58:37;7.03;;;1.98;;
67185;SDS011;54116;53.518;49.398;2023-05-10T05:01:05;6.90;;;1.67;;
67185;SDS011;54116;53.518;49.398;2023-05-10T05:03:34;5.90;;;1.67;;
67185;SDS011;54116;53.518;49.398;2023-05-10T05:06:01;5.85;;;1.42;;
67185;SDS011;54116;53.518;49.398;2023-05-10T05:08:27;3.65;;;0.90;;
67185;SDS011;54116;53.518;49.398;2023-05-10T05:10:53;6.75;;;1.40;;
67185;SDS011;54116;53.518;49.398;2023-05-10T05:13:20;6.05;;;1.55;;
67185;SDS011;54116;53.518;49.398;2023-05-10T05:15:46;6.18;;;1.23;;
67185;SDS011;54116;53.518;49.398;2023-05-10T05:18:12;4.15;;;1.48;;
67185;SDS011;54116;53.518;49.398;2023-05-10T05:20:39;4.25;;;1.05;;
67185;SDS011;54116;53.518;49.398;2023-05-10T05:23:05;5.50;;;1.30;;
67185;SDS011;54116;53.518;49.398;2023-05-10T05:25:31;4.20;;;1.15;;
67185;SDS011;54116;53.518;49.398;2023-05-10T05:28:15;4.13;;;0.73;;
67185;SDS011;54116;53.518;49.398;2023-05-10T05:30:42;4.78;;;1.00;;
67185;SDS011;54116;53.518;49.398;2023-05-10T05:33:08;3.45;;;1.10;;
67185;SDS011;54116;53.518;49.398;2023-05-10T05:38:21;3.67;;;1.02;;
67185;SDS011;54116;53.518;49.398;2023-05-10T05:40:47;7.13;;;0.90;;
67185;SDS011;54116;53.518;49.398;2023-05-10T05:43:13;2.45;;;0.70;;
67185;SDS011;54116;53.518;49.398;2023-05-10T05:45:44;1.75;;;0.75;;
67185;SDS011;54116;53.518;49.398;2023-05-10T05:48:10;5.38;;;1.20;;
67185;SDS011;54116;53.518;49.398;2023-05-10T05:50:36;5.60;;;1.08;;
67185;SDS011;54116;53.518;49.398;2023-05-10T05:53:02;4.13;;;0.82;;
67185;SDS011;54116;53.518;49.398;2023-05-10T05:55:28;3.78;;;0.95;;
67185;SDS011;54116;53.518;49.398;2023-05-10T05:57:57;6.20;;;0.93;;
67185;SDS011;54116;53.518;49.398;2023-05-10T06:00:23;9.75;;;1.38;;
67185;SDS011;54116;53.518;49.398;2023-05-10T06:02:50;2.65;;;0.73;;
67185;SDS011;54116;53.518;49.398;2023-05-10T06:05:16;7.18;;;1.00;;
67185;SDS011;54116;53.518;49.398;2023-05-10T06:07:42;3.78;;;0.90;;
67185;SDS011;54116;53.518;49.398;2023-05-10T06:10:08;4.35;;;1.30;;
67185;SDS011;54116;53.518;49.398;2023-05-10T06:12:35;4.50;;;0.85;;
67185;SDS011;54116;53.518;49.398;2023-05-10T06:15:03;3.67;;;0.80;;
67185;SDS011;54116;53.518;49.398;2023-05-10T06:17:30;9.63;;;1.17;;
67185;SDS011;54116;53.518;49.398;2023-05-10T06:19:57;2.38;;;0.70;;
67185;SDS011;54116;53.518;49.398;2023-05-10T06:22:23;4.32;;;1.13;;
67185;SDS011;54116;53.518;49.398;2023-05-10T06:24:49;3.60;;;0.73;;
67185;SDS011;54116;53.518;49.398;2023-05-10T06:27:15;7.70;;;1.02;;
67185;SDS011;54116;53.518;49.398;2023-05-10T06:29:42;2.50;;;0.55;;
67185;SDS011;54116;53.518;49.398;2023-05-10T06:32:08;3.88;;;0.77;;
67185;SDS011;54116;53.518;49.398;2023-05-10T06:34:34;3.83;;;0.68;;
67185;SDS011;54116;53.518;49.398;2023-05-10T06:37:01;5.85;;;0.70;;
67185;SDS011;54116;53.518;49.398;2023-05-10T06:39:28;1.65;;;0.50;;
67185;SDS011;54116;53.518;49.398;2023-05-10T06:41:54;2.95;;;0.60;;
67185;SDS011;54116;53.518;49.398;2023-05-10T06:47:05;5.07;;;0.80;;
67185;SDS011;54116;53.518;49.398;2023-05-10T06:49:31;2.75;;;0.60;;
67185;SDS011;54116;53.518;49.398;2023-05-10T06:51:57;7.03;;;1.25;;
67185;SDS011;54116;53.518;49.398;2023-05-10T06:54:24;1.50;;;0.60;;
67185;SDS011;54116;53.518;49.398;2023-05-10T06:56:50;2.78;;;0.52;;
67185;SDS011;54116;53.518;49.398;2023-05-10T06:59:16;3.00;;;0.82;;
67185;SDS011;54116;53.518;49.398;2023-05-10T07:01:44;7.18;;;0.88;;
67185;SDS011;54116;53.518;49.398;2023-05-10T07:04:10;1.55;;;0.50;;
67185;SDS011;54116;53.518;49.398;2023-05-10T07:06:37;4.47;;;0.70;;
67185;SDS011;54116;53.518;49.398;2023-05-10T07:09:03;2.30;;;0.52;;
67185;SDS011;54116;53.518;49.398;2023-05-10T07:11:29;3.15;;;0.70;;
67185;SDS011;54116;53.518;49.398;2023-05-10T07:13:56;2.95;;;0.70;;
67185;SDS011;54116;53.518;49.398;2023-05-10T07:16:22;2.85;;;0.60;;
67185;SDS011;54116;53.518;49.398;2023-05-10T07:18:48;5.00;;;0.50;;
67185;SDS011;54116;53.518;49.398;2023-05-10T07:21:16;4.70;;;0.70;;
67185;SDS011;54116;53.518;49.398;2023-05-10T07:24:00;1.77;;;0.60;;
67185;SDS011;54116;53.518;49.398;2023-05-10T07:26:26;4.05;;;0.70;;
67185;SDS011;54116;53.518;49.398;2023-05-10T07:28:52;2.40;;;0.60;;
67185;SDS011;54116;53.518;49.398;2023-05-10T07:31:18;4.00;;;0.63;;
67185;SDS011;54116;53.518;49.398;2023-05-10T07:34:03;6.40;;;0.90;;
67185;SDS011;54116;53.518;49.398;2023-05-10T07:36:29;3.97;;;0.70;;
67185;SDS011;54116;53.518;49.398;2023-05-10T07:38:56;2.58;;;0.68;;
67185;SDS011;54116;53.518;49.398;2023-05-10T07:41:23;9.25;;;1.05;;
67185;SDS011;54116;53.518;49.398;2023-05-10T07:43:49;5.28;;;1.20;;
67185;SDS011;54116;53.518;49.398;2023-05-10T07:46:15;3.42;;;0.52;;
67185;SDS011;54116;53.518;49.398;2023-05-10T07:48:47;2.65;;;0.50;;
67185;SDS011;54116;53.518;49.398;2023-05-10T07:51:13;4.78;;;0.80;;
67185;SDS011;54116;53.518;49.398;2023-05-10T07:53:39;2.95;;;0.68;;
67185;SDS011;54116;53.518;49.398;2023-05-10T07:56:24;2.92;;;0.63;;
67185;SDS011;54116;53.518;49.398;2023-05-10T07:58:55;2.63;;;0.68;;
67185;SDS011;54116;53.518;49.398;2023-05-10T08:01:22;4.57;;;0.77;;
67185;SDS011;54116;53.518;49.398;2023-05-10T08:03:48;5.15;;;0.90;;
67185;SDS011;54116;53.518;49.398;2023-05-10T08:06:17;4.50;;;0.90;;
67185;SDS011;54116;53.518;49.398;2023-05-10T08:08:43;2.33;;;0.77;;
67185;SDS011;54116;53.518;49.398;2023-05-10T08:11:15;5.97;;;0.95;;
67185;SDS011;54116;53.518;49.398;2023-05-10T08:13:42;4.60;;;1.08;;
67185;SDS011;54116;53.518;49.398;2023-05-10T08:16:08;2.13;;;0.80;;
67185;SDS011;54116;53.518;49.398;2023-05-10T08:18:34;3.17;;;0.75;;
67185;SDS011;54116;53.518;49.398;2023-05-10T08:21:01;3.13;;;0.80;;
67185;SDS011;54116;53.518;49.398;2023-05-10T08:23:27;2.20;;;0.90;;
67185;SDS011;54116;53.518;49.398;2023-05-10T08:25:53;7.22;;;1.10;;
67185;SDS011;54116;53.518;49.398;2023-05-10T08:28:20;6.57;;;1.05;;
67185;SDS011;54116;53.518;49.398;2023-05-10T08:30:46;5.30;;;1.15;;
67185;SDS011;54116;53.518;49.398;2023-05-10T08:33:12;5.07;;;1.33;;
67185;SDS011;54116;53.518;49.398;2023-05-10T08:35:38;7.13;;;1.20;;
67185;SDS011;54116;53.518;49.398;2023-05-10T08:38:05;3.78;;;1.10;;
67185;SDS011;54116;53.518;49.398;2023-05-10T08:40:31;2.92;;;1.02;;
67185;SDS011;54116;53.518;49.398;2023-05-10T08:43:15;9.10;;;1.55;;
67185;SDS011;54116;53.518;49.398;2023-05-10T08:45:42;6.97;;;1.63;;
67185;SDS011;54116;53.518;49.398;2023-05-10T08:48:13;4.15;;;1.20;;
67185;SDS011;54116;53.518;49.398;2023-05-10T08:50:40;6.25;;;1.40;;
67185;SDS011;54116;53.518;49.398;2023-05-10T08:55:52;7.75;;;2.35;;
67185;SDS011;54116;53.518;49.398;2023-05-10T08:58:19;8.95;;;2.70;;
67185;SDS011;54116;53.518;49.398;2023-05-10T09:00:48;7.80;;;3.05;;
67185;SDS011;54116;53.518;49.398;2023-05-10T09:03:16;8.70;;;2.35;;
67185;SDS011;54116;53.518;49.398;2023-05-10T09:05:43;6.18;;;2.00;;
67185;SDS011;54116;53.518;49.398;2023-05-10T09:08:10;4.72;;;1.40;;
67185;SDS011;54116;53.518;49.398;2023-05-10T09:10:44;4.80;;;1.60;;
67185;SDS011;54116;53.518;49.398;2023-05-10T09:13:13;4.80;;;1.83;;
67185;SDS011;54116;53.518;49.398;2023-05-10T09:15:41;8.57;;;2.00;;
67185;SDS011;54116;53.518;49.398;2023-05-10T09:18:07;26.38;;;4.35;;
67185;SDS011;54116;53.518;49.398;2023-05-10T09:20:34;9.85;;;2.83;;
67185;SDS011;54116;53.518;49.398;2023-05-10T09:23:00;8.63;;;3.33;;
67185;SDS011;54116;53.518;49.398;2023-05-10T09:25:26;11.20;;;3.58;;
67185;SDS011;54116;53.518;49.398;2023-05-10T09:27:53;7.32;;;3.30;;
67185;SDS011;54116;53.518;49.398;2023-05-10T09:32:54;7.68;;;3.05;;
67185;SDS011;54116;53.518;49.398;2023-05-10T09:35:23;8.45;;;2.90;;
67185;SDS011;54116;53.518;49.398;2023-05-10T09:38:00;7.28;;;2.70;;
67185;SDS011;54116;53.518;49.398;2023-05-10T09:40:30;5.13;;;2.28;;
67185;SDS011;54116;53.518;49.398;2023-05-10T09:46:02;7.88;;;2.70;;
67185;SDS011;54116;53.518;49.398;2023-05-10T09:48:34;10.70;;;3.30;;
67185;SDS011;54116;53.518;49.398;2023-05-10T09:51:21;8.63;;;3.03;;
67185;SDS011;54116;53.518;49.398;2023-05-10T09:54:08;8.20;;;3.50;;
67185;SDS011;54116;53.518;49.398;2023-05-10T09:56:35;8.13;;;3.22;;
67185;SDS011;54116;53.518;49.398;2023-05-10T09:59:20;9.45;;;3.45;;
67185;SDS011;54116;53.518;49.398;2023-05-10T10:01:50;9.85;;;3.47;;
67185;SDS011;54116;53.518;49.398;2023-05-10T10:04:17;8.77;;;3.63;;
67185;SDS011;54116;53.518;49.398;2023-05-10T10:06:45;7.47;;;3.10;;
67185;SDS011;54116;53.518;49.398;2023-05-10T10:09:11;9.55;;;3.20;;
67185;SDS011;54116;53.518;49.398;2023-05-10T10:11:39;9.07;;;3.10;;
67185;SDS011;54116;53.518;49.398;2023-05-10T10:14:07;8.07;;;3.67;;
67185;SDS011;54116;53.518;49.398;2023-05-10T10:16:33;8.02;;;3.33;;
67185;SDS011;54116;53.518;49.398;2023-05-10T10:18:59;7.97;;;3.40;;
67185;SDS011;54116;53.518;49.398;2023-05-10T10:21:26;7.68;;;3.70;;
67185;SDS011;54116;53.518;49.398;2023-05-10T10:23:53;9.55;;;3.20;;
67185;SDS011;54116;53.518;49.398;2023-05-10T10:26:19;7.95;;;3.13;;
67185;SDS011;54116;53.518;49.398;2023-05-10T10:32:09;13.43;;;4.80;;
67185;SDS011;54116;53.518;49.398;2023-05-10T10:35:10;9.27;;;3.85;;
67185;SDS011;54116;53.518;49.398;2023-05-10T10:37:47;11.38;;;4.43;;
67185;SDS011;54116;53.518;49.398;2023-05-10T10:40:24;10.77;;;4.70;;
67185;SDS011;54116;53.518;49.398;2023-05-10T10:42:55;9.02;;;4.35;;
67185;SDS011;54116;53.518;49.398;2023-05-10T10:45:23;10.93;;;4.25;;
67185;SDS011;54116;53.518;49.398;2023-05-10T10:48:19;9.45;;;4.10;;
67185;SDS011;54116;53.518;49.398;2023-05-10T10:50:55;9.60;;;3.95;;
67185;SDS011;54116;53.518;49.398;2023-05-10T10:53:26;9.32;;;3.60;;
67185;SDS011;54116;53.518;49.398;2023-05-10T10:56:02;10.00;;;3.75;;
67185;SDS011;54116;53.518;49.398;2023-05-10T10:58:33;12.75;;;4.28;;
67185;SDS011;54116;53.518;49.398;2023-05-10T11:02:00;11.50;;;4.85;;
67185;SDS011;54116;53.518;49.398;2023-05-10T11:06:34;11.73;;;4.30;;
67185;SDS011;54116;53.518;49.398;2023-05-10T11:09:05;10.10;;;4.00;;
67185;SDS011;54116;53.518;49.398;2023-05-10T11:11:36;8.65;;;3.63;;
67185;SDS011;54116;53.518;49.398;2023-05-10T11:14:34;11.50;;;3.88;;
67185;SDS011;54116;53.518;49.398;2023-05-10T11:17:01;18.15;;;4.32;;
67185;SDS011;54116;53.518;49.398;2023-05-10T11:20:06;7.82;;;3.85;;
67185;SDS011;54116;53.518;49.398;2023-05-10T11:22:52;9.98;;;4.15;;
67185;SDS011;54116;53.518;49.398;2023-05-10T11:25:23;12.02;;;4.22;;
67185;SDS011;54116;53.518;49.398;2023-05-10T11:27:52;9.70;;;4.18;;
67185;SDS011;54116;53.518;49.398;2023-05-10T11:30:18;10.50;;;4.07;;
67185;SDS011;54116;53.518;49.398;2023-05-10T11:32:46;8.57;;;3.58;;
67185;SDS011;54116;53.518;49.398;2023-05-10T11:35:12;9.57;;;4.25;;
67185;SDS011;54116;53.518;49.398;2023-05-10T11:37:39;9.95;;;3.47;;
67185;SDS011;54116;53.518;49.398;2023-05-10T11:40:09;10.23;;;3.92;;
67185;SDS011;54116;53.518;49.398;2023-05-10T11:42:39;10.15;;;3.40;;
67185;SDS011;54116;53.518;49.398;2023-05-10T11:45:06;7.95;;;3.25;;
67185;SDS011;54116;53.518;49.398;2023-05-10T11:47:35;9.88;;;3.85;;
67185;SDS011;54116;53.518;49.398;2023-05-10T11:50:02;13.27;;;4.75;;
67185;SDS011;54116;53.518;49.398;2023-05-10T11:52:29;7.32;;;3.33;;
67185;SDS011;54116;53.518;49.398;2023-05-10T11:54:55;7.68;;;3.20;;
67185;SDS011;54116;53.518;49.398;2023-05-10T11:57:27;6.90;;;2.92;;
67185;SDS011;54116;53.518;49.398;2023-05-10T11:59:54;8.45;;;2.97;;
67185;SDS011;54116;53.518;49.398;2023-05-10T12:02:21;11.38;;;3.08;;
67185;SDS011;54116;53.518;49.398;2023-05-10T12:04:48;8.52;;;3.17;;
67185;SDS011;54116;53.518;49.398;2023-05-10T12:07:16;9.10;;;3.40;;
67185;SDS011;54116;53.518;49.398;2023-05-10T12:09:43;7.43;;;2.80;;
67185;SDS011;54116;53.518;49.398;2023-05-10T12:12:16;8.20;;;3.65;;
67185;SDS011;54116;53.518;49.398;2023-05-10T12:14:42;11.07;;;3.70;;
67185;SDS011;54116;53.518;49.398;2023-05-10T12:17:12;11.70;;;3.85;;
67185;SDS011;54116;53.518;49.398;2023-05-10T12:19:39;13.05;;;3.78;;
67185;SDS011;54116;53.518;49.398;2023-05-10T12:22:05;8.85;;;3.50;;
67185;SDS011;54116;53.518;49.398;2023-05-10T12:24:33;29.65;;;4.57;;
67185;SDS011;54116;53.518;49.398;2023-05-10T12:27:04;7.32;;;3.53;;
67185;SDS011;54116;53.518;49.398;2023-05-10T12:29:32;6.97;;;3.20;;
67185;SDS011;54116;53.518;49.398;2023-05-10T12:31:58;7.43;;;3.38;;
67185;SDS011;54116;53.518;49.398;2023-05-10T12:34:35;8.02;;;3.58;;
67185;SDS011;54116;53.518;49.398;2023-05-10T12:37:02;9.07;;;3.90;;
67185;SDS011;54116;53.518;49.398;2023-05-10T12:39:39;8.68;;;3.78;;
67185;SDS011;54116;53.518;49.398;2023-05-10T12:42:08;8.80;;;3.40;;
67185;SDS011;54116;53.518;49.398;2023-05-10T12:44:35;9.82;;;3.50;;
67185;SDS011;54116;53.518;49.398;2023-05-10T12:47:01;8.77;;;3.13;;
67185;SDS011;54116;53.518;49.398;2023-05-10T12:49:46;12.65;;;3.47;;
67185;SDS011;54116;53.518;49.398;2023-05-10T12:52:12;12.00;;;3.47;;
67185;SDS011;54116;53.518;49.398;2023-05-10T12:54:38;14.25;;;3.53;;
67185;SDS011;54116;53.518;49.398;2023-05-10T12:57:24;9.38;;;3.70;;
67185;SDS011;54116;53.518;49.398;2023-05-10T12:59:50;9.02;;;3.28;;
67185;SDS011;54116;53.518;49.398;2023-05-10T13:02:16;9.85;;;3.72;;
67185;SDS011;54116;53.518;49.398;2023-05-10T13:04:44;7.80;;;3.25;;
67185;SDS011;54116;53.518;49.398;2023-05-10T13:07:11;7.80;;;3.75;;
67185;SDS011;54116;53.518;49.398;2023-05-10T13:09:38;10.48;;;3.70;;
67185;SDS011;54116;53.518;49.398;2023-05-10T13:12:04;7.22;;;2.78;;
67185;SDS011;54116;53.518;49.398;2023-05-10T13:14:48;8.98;;;3.20;;
67185;SDS011;54116;53.518;49.398;2023-05-10T13:17:14;7.43;;;3.13;;
67185;SDS011;54116;53.518;49.398;2023-05-10T13:19:41;11.90;;;3.60;;
67185;SDS011;54116;53.518;49.398;2023-05-10T13:22:07;9.43;;;3.00;;
67185;SDS011;54116;53.518;49.398;2023-05-10T13:24:33;8.63;;;3.35;;
67185;SDS011;54116;53.518;49.398;2023-05-10T13:27:00;8.82;;;3.25;;
67185;SDS011;54116;53.518;49.398;2023-05-10T13:29:26;8.32;;;3.25;;
67185;SDS011;54116;53.518;49.398;2023-05-10T13:31:52;10.93;;;3.92;;
67185;SDS011;54116;53.518;49.398;2023-05-10T13:34:18;14.80;;;3.65;;
67185;SDS011;54116;53.518;49.398;2023-05-10T13:36:46;9.98;;;3.25;;
67185;SDS011;54116;53.518;49.398;2023-05-10T13:39:14;8.18;;;3.45;;
67185;SDS011;54116;53.518;49.398;2023-05-10T13:41:40;5.50;;;1.98;;
67185;SDS011;54116;53.518;49.398;2023-05-10T13:44:06;4.80;;;1.30;;
67185;SDS011;54116;53.518;49.398;2023-05-10T13:46:33;8.23;;;1.20;;
67185;SDS011;54116;53.518;49.398;2023-05-10T13:48:59;5.85;;;1.48;;
67185;SDS011;54116;53.518;49.398;2023-05-10T13:51:25;5.15;;;1.50;;
67185;SDS011;54116;53.518;49.398;2023-05-10T13:53:51;5.47;;;1.40;;
67185;SDS011;54116;53.518;49.398;2023-05-10T13:56:18;7.32;;;1.48;;
67185;SDS011;54116;53.518;49.398;2023-05-10T13:58:44;4.03;;;1.33;;
67185;SDS011;54116;53.518;49.398;2023-05-10T14:01:11;6.97;;;1.48;;
67185;SDS011;54116;53.518;49.398;2023-05-10T14:03:37;6.40;;;1.40;;
67185;SDS011;54116;53.518;49.398;2023-05-10T14:06:03;10.00;;;1.55;;
67185;SDS011;54116;53.518;49.398;2023-05-10T14:08:30;4.72;;;0.88;;
67185;SDS011;54116;53.518;49.398;2023-05-10T14:10:59;8.43;;;1.30;;
67185;SDS011;54116;53.518;49.398;2023-05-10T14:13:27;8.35;;;4.10;;
67185;SDS011;54116;53.518;49.398;2023-05-10T14:15:55;5.43;;;1.20;;
67185;SDS011;54116;53.518;49.398;2023-05-10T14:18:21;9.98;;;1.20;;
67185;SDS011;54116;53.518;49.398;2023-05-10T14:20:47;5.85;;;1.00;;
67185;SDS011;54116;53.518;49.398;2023-05-10T14:23:14;2.90;;;1.13;;
67185;SDS011;54116;53.518;49.398;2023-05-10T14:25:40;6.95;;;1.42;;
67185;SDS011;54116;53.518;49.398;2023-05-10T14:28:06;3.35;;;0.85;;
67185;SDS011;54116;53.518;49.398;2023-05-10T14:30:33;3.15;;;0.70;;
67185;SDS011;54116;53.518;49.398;2023-05-10T14:33:00;4.03;;;1.10;;
67185;SDS011;54116;53.518;49.398;2023-05-10T14:35:28;4.35;;;1.25;;
67185;SDS011;54116;53.518;49.398;2023-05-10T14:37:56;4.40;;;1.15;;
67185;SDS011;54116;53.518;49.398;2023-05-10T14:40:23;3.65;;;0.90;;
67185;SDS011;54116;53.518;49.398;2023-05-10T14:42:54;4.65;;;1.35;;
67185;SDS011;54116;53.518;49.398;2023-05-10T14:45:22;14.43;;;3.30;;
67185;SDS011;54116;53.518;49.398;2023-05-10T14:47:54;7.63;;;2.00;;
67185;SDS011;54116;53.518;49.398;2023-05-10T14:50:25;6.78;;;1.77;;
67185;SDS011;54116;53.518;49.398;2023-05-10T14:52:52;3.35;;;0.90;;
67185;SDS011;54116;53.518;49.398;2023-05-10T14:55:19;3.78;;;0.90;;
67185;SDS011;54116;53.518;49.398;2023-05-10T14:57:45;5.07;;;1.02;;
67185;SDS011;54116;53.518;49.398;2023-05-10T15:00:13;4.00;;;1.20;;
67185;SDS011;54116;53.518;49.398;2023-05-10T15:02:41;6.20;;;1.13;;
67185;SDS011;54116;53.518;49.398;2023-05-10T15:05:07;5.28;;;0.88;;
67185;SDS011;54116;53.518;49.398;2023-05-10T15:07:34;4.03;;;0.90;;
67185;SDS011;54116;53.518;49.398;2023-05-10T15:10:06;4.22;;;1.13;;
67185;SDS011;54116;53.518;49.398;2023-05-10T15:12:33;5.00;;;0.65;;
67185;SDS011;54116;53.518;49.398;2023-05-10T15:14:59;4.22;;;0.85;;
67185;SDS011;54116;53.518;49.398;2023-05-10T15:17:26;5.72;;;0.98;;
67185;SDS011;54116;53.518;49.398;2023-05-10T15:19:53;4.20;;;0.80;;
67185;SDS011;54116;53.518;49.398;2023-05-10T15:22:19;5.45;;;1.00;;
67185;SDS011;54116;53.518;49.398;2023-05-10T15:24:46;6.22;;;0.90;;
67185;SDS011;54116;53.518;49.398;2023-05-10T15:27:12;5.68;;;1.13;;
67185;SDS011;54116;53.518;49.398;2023-05-10T15:29:38;3.95;;;0.90;;